x

Portlock Bank- 76nm Ene Of Kodiak, Ak (46080) Wave Buoy

12:50am - Thu 17th Aug 2017 All times are AKDT. -8 hours from GMT.

  • Sig Wave height 5.6ft
  • Peak Period 8s
  • Average Period 5s
  • Wind
    18mph, 20mph gusts
  • Sea Temp 55°f
  • Air Temp 54°f
  • Sea Pressure 1001.9mb
  • Portlock Bank- 76nm Ene Of Kodiak, Ak
  • Portlock Bank- 76nm Ene Of Kodiak, Ak

More Historic Weather Station data

Upgrade to MSW Pro to gain access to the past 30 days of data for over 8000 Wavebouys and Weather Stations around the globe.

Join

Comparision Forecast

View Surf forecast
   
Thu 08/17 12:50am 5.5ft 8s 5s 18 20 mph 1001.9mb 55f 54f
Wed 08/16 11:50pm 6.5ft 8s 5s 20 25 mph 1001.8mb 55f 54f
10:50pm 6.5ft 8s 5s 20 25 mph 1001.6mb 55f 54f
9:50pm 6ft 7s 5s 22 27 mph 1001.4mb 55f 54f
8:50pm 7ft 7s 5s 22 29 mph 1001.4mb 55f 54f
7:50pm 7ft 7s 5s 20 25 mph 1001.5mb 55f 53f
6:50pm 7ft 7s 6s 20 25 mph 1001.6mb 55f 53f
5:50pm 7ft 7s 6s 20 22 mph 1001.7mb 55f 53f
4:50pm 7.5ft 6s 6s 20 25 mph 1001.8mb 55f 54f
3:50pm 6.5ft 7s 5s 20 25 mph 1002.2mb 55f 53f
2:50pm 6.5ft 7s 5s 22 27 mph 1002.2mb 55f 53f
1:50pm 6ft 6s 5s 20 25 mph 1002.1mb 55f 54f
12:50pm 6ft 11s 5s 22 27 mph 1001.9mb 56f 54f
11:50am 6.5ft 10s 5s 20 22 mph 1002.1mb 56f 54f
10:50am 6.5ft 10s 5s 22 27 mph 1002mb 56f 53f
9:50am 6.5ft 11s 5s 25 29 mph 1001.6mb 56f 53f
8:50am 7ft 6s 5s 25 29 mph 1001.7mb 56f 53f
7:50am 5.5ft 11s 5s 25 29 mph 1001.9mb 56f 53f
6:50am 5.5ft 10s 5s 20 25 mph 1002.3mb 56f 53f
5:50am 5ft 10s 5s 20 22 mph 1002.9mb 56f 53f
4:50am 5ft 7s 6s 20 25 mph 1003.2mb 56f 54f
3:50am 5.5ft 11s 6s 16 20 mph 1003.6mb 56f 55f
2:50am 5.5ft 9s 6s 11 13 mph 1003.9mb 56f 54f
1:50am 6ft 7s 6s 13 16 mph 1004.2mb 57f 54f
12:50am 5ft 7s 6s 13 16 mph 1004.2mb 57f 55f
Tue 08/15 11:50pm 5ft 8s 6s 13 13 mph 1004.2mb 57f 55f
10:50pm 4.5ft 9s 6s 11 13 mph 1004.4mb 57f 55f
9:50pm 4ft 11s 7s 7 9 mph 1004.4mb 58f 56f
8:50pm 4.5ft 10s 7s 2 4 mph 1004.5mb 58f 56f
7:50pm 4.5ft 11s 6s 2 2 mph 1004.8mb 58f 56f
6:50pm 4.5ft 10s 6s 2 2 mph 1004.9mb 58f 57f
5:50pm 4.5ft 10s 5s 2 4 mph 1005.3mb 57f 57f
4:50pm 4.5ft 11s 5s 2 4 mph 1005.5mb 58f 56f
3:50pm 4.5ft 11s 6s 4 7 mph 1005.5mb 57f 56f
2:50pm 4ft 11s 6s 4 7 mph 1005.5mb 57f 56f
1:50pm 4ft 11s 6s 7 9 mph 1005.2mb 56f 56f
12:50pm 4ft 11s 6s 11 13 mph 1005mb 56f 56f
11:50am 4ft 11s 6s 9 11 mph 1004.7mb 56f 56f
10:50am 3.5ft 10s 7s 11 13 mph 1004.6mb 56f 55f
9:50am 3.5ft 10s 6s 7 9 mph 1004.6mb 56f 55f
8:50am 3.5ft 9s 7s 11 13 mph 1004.1mb 56f 56f
7:50am 3.5ft 9s 6s 7 9 mph 1004mb 56f 55f
6:50am 3.5ft 10s 6s 11 13 mph 1004mb 56f 55f
5:50am 3ft 9s 5s 11 13 mph 1004.2mb 56f 55f
4:50am 2.5ft 9s 5s 13 18 mph 1004.5mb 56f 55f
3:50am 2.5ft 9s 5s 11 13 mph 1005mb 56f 55f
2:50am 2.5ft 9s 5s 11 13 mph 1005.6mb 56f 55f
1:50am 2.5ft 8s 4s 11 13 mph 1005.9mb 57f 55f
12:50am 2.5ft 11s 5s 13 16 mph 1006.4mb 57f 56f
Mon 08/14 11:50pm 2.5ft 6s 5s 11 13 mph 1006.6mb 57f 55f
10:50pm 3ft 7s 5s 11 13 mph 1006.8mb 57f 55f
9:50pm 3ft 7s 6s 9 11 mph 1007.2mb 57f 55f
8:50pm 3ft 8s 5s 4 7 mph 1007.2mb 58f 56f
7:50pm 2.5ft 8s 5s 4 7 mph 1007.6mb 58f 55f
6:50pm 2.5ft 6s 5s 7 9 mph 1008mb 58f 56f
5:50pm 3ft 6s 5s 7 9 mph 1008.3mb 57f 55f
4:50pm 3.5ft 7s 5s 9 11 mph 1008.4mb 56f 55f
3:50pm 3.5ft 7s 5s 9 11 mph 1008.3mb 57f 55f
2:50pm 4ft 6s 5s 9 11 mph 1008.2mb 57f 56f
1:50pm 3.5ft 8s 5s 4 4 mph 1008.1mb 57f 56f
12:50pm 3.5ft 8s 5s 4 7 mph 1008mb 56f 56f
11:50am 3.5ft 8s 5s 2 2 mph 1007.8mb 56f 56f
10:50am 3.5ft 8s 5s 2 2 mph 1007.4mb 56f 56f
9:50am 3.5ft 8s 6s 2 4 mph 1006.9mb 56f 55f
8:50am 3.5ft 8s 5s 2 4 mph 1006.7mb 56f 55f
7:50am 4ft 9s 6s 4 4 mph 1006.1mb 55f 54f
6:50am 3.5ft 8s 5s 4 7 mph 1005.9mb 55f 54f
5:50am 3.5ft 8s 5s 7 9 mph 1005.6mb 54f 53f
4:50am 4.5ft 8s 5s 9 9 mph 1005.5mb 54f 54f
3:50am 4.5ft 8s 5s 9 11 mph 1005.3mb 54f 54f
2:50am 4.5ft 8s 5s 11 13 mph 1005mb 55f 55f
1:50am 5.5ft 8s 5s 16 18 mph 1004.7mb 55f 55f
12:50am 5.5ft 8s 5s 16 18 mph 1004.3mb 56f 55f
Sun 08/13 11:50pm 6ft 8s  -  11 16 mph 1003.9mb 56f 55f
10:50pm 6.5ft 7s 5s 11 16 mph 1003.3mb 55f 55f
9:50pm 7ft 8s 6s 13 18 mph 1002.9mb 56f 55f
8:50pm 6ft 9s 6s 16 18 mph 1002.3mb 56f 55f
7:50pm 7ft 9s 6s 16 20 mph 1001.8mb 55f 55f
6:50pm 6ft 9s 5s 16 20 mph 1001.4mb 55f 55f
5:50pm 5.5ft 6s 5s 18 22 mph 1001.4mb 55f 55f
4:50pm 6ft 6s 5s 16 20 mph 1001mb 55f 54f
3:50pm 6ft 9s 5s 20 22 mph 1000.7mb 55f 54f
2:50pm 6ft 6s 5s 20 22 mph 1000.2mb 55f 53f
1:50pm 7ft 6s 5s 18 22 mph 999.8mb 55f 53f
12:50pm 7.5ft 8s 5s 20 25 mph 999.4mb 55f 53f
11:50am 8ft 8s 5s 20 25 mph 998.9mb 55f 53f
10:50am 8ft 7s 5s 22 27 mph 998.3mb 56f 53f